sensor_id;sensor_type;location;lat;lon;timestamp;temperature;humidity
52159;DHT22;38145;53.182;6.284;2022-08-19T00:00:15;16.10;99.90
52159;DHT22;38145;53.182;6.284;2022-08-19T00:02:42;16.10;99.90
52159;DHT22;38145;53.182;6.284;2022-08-19T00:05:10;16.10;99.90
52159;DHT22;38145;53.182;6.284;2022-08-19T00:07:37;16.00;99.90
52159;DHT22;38145;53.182;6.284;2022-08-19T00:10:05;15.90;99.90
52159;DHT22;38145;53.182;6.284;2022-08-19T00:12:33;15.90;99.90
52159;DHT22;38145;53.182;6.284;2022-08-19T00:14:59;15.80;99.90
52159;DHT22;38145;53.182;6.284;2022-08-19T00:17:26;15.80;99.90
52159;DHT22;38145;53.182;6.284;2022-08-19T00:19:52;15.70;99.90
52159;DHT22;38145;53.182;6.284;2022-08-19T00:22:18;15.60;99.90
52159;DHT22;38145;53.182;6.284;2022-08-19T00:24:45;15.60;99.90
52159;DHT22;38145;53.182;6.284;2022-08-19T00:27:12;15.60;99.90
52159;DHT22;38145;53.182;6.284;2022-08-19T00:29:38;15.60;99.90
52159;DHT22;38145;53.182;6.284;2022-08-19T00:32:05;15.60;99.90
52159;DHT22;38145;53.182;6.284;2022-08-19T00:34:32;15.50;99.90
52159;DHT22;38145;53.182;6.284;2022-08-19T00:36:59;15.50;99.90
52159;DHT22;38145;53.182;6.284;2022-08-19T00:39:25;15.40;99.90
52159;DHT22;38145;53.182;6.284;2022-08-19T00:41:52;15.40;99.90
52159;DHT22;38145;53.182;6.284;2022-08-19T00:44:22;15.30;99.90
52159;DHT22;38145;53.182;6.284;2022-08-19T00:46:51;15.10;99.90
52159;DHT22;38145;53.182;6.284;2022-08-19T00:49:27;14.90;99.90
52159;DHT22;38145;53.182;6.284;2022-08-19T00:51:57;14.90;99.90
52159;DHT22;38145;53.182;6.284;2022-08-19T00:54:24;14.90;99.90
52159;DHT22;38145;53.182;6.284;2022-08-19T00:56:51;14.90;99.90
52159;DHT22;38145;53.182;6.284;2022-08-19T00:59:18;14.80;99.90
52159;DHT22;38145;53.182;6.284;2022-08-19T01:01:46;14.90;99.90
52159;DHT22;38145;53.182;6.284;2022-08-19T01:04:13;14.90;99.90
52159;DHT22;38145;53.182;6.284;2022-08-19T01:06:40;15.00;99.90
52159;DHT22;38145;53.182;6.284;2022-08-19T01:09:07;14.90;99.90
52159;DHT22;38145;53.182;6.284;2022-08-19T01:11:37;14.90;99.90
52159;DHT22;38145;53.182;6.284;2022-08-19T01:14:05;14.80;99.90
52159;DHT22;38145;53.182;6.284;2022-08-19T01:16:32;14.80;99.90
52159;DHT22;38145;53.182;6.284;2022-08-19T01:18:59;14.80;99.90
52159;DHT22;38145;53.182;6.284;2022-08-19T01:21:34;14.80;99.90
52159;DHT22;38145;53.182;6.284;2022-08-19T01:24:03;14.90;99.90
52159;DHT22;38145;53.182;6.284;2022-08-19T01:26:29;14.90;99.90
52159;DHT22;38145;53.182;6.284;2022-08-19T01:28:58;14.80;99.90
52159;DHT22;38145;53.182;6.284;2022-08-19T01:31:27;14.80;99.90
52159;DHT22;38145;53.182;6.284;2022-08-19T01:33:57;14.80;99.90
52159;DHT22;38145;53.182;6.284;2022-08-19T01:36:28;14.80;99.90
52159;DHT22;38145;53.182;6.284;2022-08-19T01:38:55;14.70;99.90
52159;DHT22;38145;53.182;6.284;2022-08-19T01:41:24;14.60;99.90
52159;DHT22;38145;53.182;6.284;2022-08-19T01:43:52;14.60;99.90
52159;DHT22;38145;53.182;6.284;2022-08-19T01:46:18;14.60;99.90
52159;DHT22;38145;53.182;6.284;2022-08-19T01:48:45;14.50;99.90
52159;DHT22;38145;53.182;6.284;2022-08-19T01:51:12;14.40;99.90
52159;DHT22;38145;53.182;6.284;2022-08-19T01:53:40;14.40;99.90
52159;DHT22;38145;53.182;6.284;2022-08-19T01:56:07;14.50;99.90
52159;DHT22;38145;53.182;6.284;2022-08-19T01:58:38;14.40;99.90
52159;DHT22;38145;53.182;6.284;2022-08-19T02:01:05;14.30;99.90
52159;DHT22;38145;53.182;6.284;2022-08-19T02:03:31;14.30;99.90
52159;DHT22;38145;53.182;6.284;2022-08-19T02:06:00;14.30;99.90
52159;DHT22;38145;53.182;6.284;2022-08-19T02:08:29;14.20;99.90
52159;DHT22;38145;53.182;6.284;2022-08-19T02:10:56;14.30;99.90
52159;DHT22;38145;53.182;6.284;2022-08-19T02:13:24;14.30;99.90
52159;DHT22;38145;53.182;6.284;2022-08-19T02:15:51;14.30;99.90
52159;DHT22;38145;53.182;6.284;2022-08-19T02:18:17;14.40;99.90
52159;DHT22;38145;53.182;6.284;2022-08-19T02:20:44;14.30;99.90
52159;DHT22;38145;53.182;6.284;2022-08-19T02:23:11;14.30;99.90
52159;DHT22;38145;53.182;6.284;2022-08-19T02:25:38;14.30;99.90
52159;DHT22;38145;53.182;6.284;2022-08-19T02:28:05;14.40;99.90
52159;DHT22;38145;53.182;6.284;2022-08-19T02:30:32;14.40;99.90
52159;DHT22;38145;53.182;6.284;2022-08-19T02:32:58;14.50;99.90
52159;DHT22;38145;53.182;6.284;2022-08-19T02:35:25;14.40;99.90
52159;DHT22;38145;53.182;6.284;2022-08-19T02:37:52;14.60;99.90
52159;DHT22;38145;53.182;6.284;2022-08-19T02:40:37;14.50;99.90
52159;DHT22;38145;53.182;6.284;2022-08-19T02:43:05;14.40;99.90
52159;DHT22;38145;53.182;6.284;2022-08-19T02:45:34;14.40;99.90
52159;DHT22;38145;53.182;6.284;2022-08-19T02:48:02;14.50;99.90
52159;DHT22;38145;53.182;6.284;2022-08-19T02:50:28;14.50;99.90
52159;DHT22;38145;53.182;6.284;2022-08-19T02:52:54;14.40;99.90
52159;DHT22;38145;53.182;6.284;2022-08-19T02:55:21;14.40;99.90
52159;DHT22;38145;53.182;6.284;2022-08-19T02:57:47;14.40;99.90
52159;DHT22;38145;53.182;6.284;2022-08-19T03:00:14;14.50;99.90
52159;DHT22;38145;53.182;6.284;2022-08-19T03:02:40;14.30;99.90
52159;DHT22;38145;53.182;6.284;2022-08-19T03:05:09;14.30;99.90
52159;DHT22;38145;53.182;6.284;2022-08-19T03:07:36;14.30;99.90
52159;DHT22;38145;53.182;6.284;2022-08-19T03:10:04;14.30;99.90
52159;DHT22;38145;53.182;6.284;2022-08-19T03:12:30;14.30;99.90
52159;DHT22;38145;53.182;6.284;2022-08-19T03:14:56;14.40;99.90
52159;DHT22;38145;53.182;6.284;2022-08-19T03:17:22;14.30;99.90
52159;DHT22;38145;53.182;6.284;2022-08-19T03:19:49;14.30;99.90
52159;DHT22;38145;53.182;6.284;2022-08-19T03:22:15;14.30;99.90
52159;DHT22;38145;53.182;6.284;2022-08-19T03:24:41;14.20;99.90
52159;DHT22;38145;53.182;6.284;2022-08-19T03:27:09;14.30;99.90
52159;DHT22;38145;53.182;6.284;2022-08-19T03:29:37;14.20;99.90
52159;DHT22;38145;53.182;6.284;2022-08-19T03:32:05;14.10;99.90
52159;DHT22;38145;53.182;6.284;2022-08-19T03:34:33;14.20;99.90
52159;DHT22;38145;53.182;6.284;2022-08-19T03:37:05;14.00;99.90
52159;DHT22;38145;53.182;6.284;2022-08-19T03:39:32;14.20;99.90
52159;DHT22;38145;53.182;6.284;2022-08-19T03:41:59;14.20;99.90
52159;DHT22;38145;53.182;6.284;2022-08-19T03:44:28;14.10;99.90
52159;DHT22;38145;53.182;6.284;2022-08-19T03:46:58;14.10;99.90
52159;DHT22;38145;53.182;6.284;2022-08-19T03:49:27;14.10;99.90
52159;DHT22;38145;53.182;6.284;2022-08-19T03:51:56;14.20;99.90
52159;DHT22;38145;53.182;6.284;2022-08-19T03:54:25;14.10;99.90
52159;DHT22;38145;53.182;6.284;2022-08-19T03:56:53;14.20;99.90
52159;DHT22;38145;53.182;6.284;2022-08-19T03:59:23;14.20;99.90
52159;DHT22;38145;53.182;6.284;2022-08-19T04:01:53;14.10;99.90
52159;DHT22;38145;53.182;6.284;2022-08-19T04:04:20;14.20;99.90
52159;DHT22;38145;53.182;6.284;2022-08-19T04:06:47;14.10;99.90
52159;DHT22;38145;53.182;6.284;2022-08-19T04:09:14;14.30;99.90
52159;DHT22;38145;53.182;6.284;2022-08-19T04:11:43;14.30;99.90
52159;DHT22;38145;53.182;6.284;2022-08-19T04:14:12;14.20;99.90
52159;DHT22;38145;53.182;6.284;2022-08-19T04:16:39;14.20;99.90
52159;DHT22;38145;53.182;6.284;2022-08-19T04:19:07;14.20;99.90
52159;DHT22;38145;53.182;6.284;2022-08-19T04:21:33;14.30;99.90
52159;DHT22;38145;53.182;6.284;2022-08-19T04:23:59;14.10;99.90
52159;DHT22;38145;53.182;6.284;2022-08-19T04:26:28;14.10;99.90
52159;DHT22;38145;53.182;6.284;2022-08-19T04:28:57;14.30;99.90
52159;DHT22;38145;53.182;6.284;2022-08-19T04:31:25;14.10;99.90
52159;DHT22;38145;53.182;6.284;2022-08-19T04:33:53;14.30;99.90
52159;DHT22;38145;53.182;6.284;2022-08-19T04:36:22;14.20;99.90
52159;DHT22;38145;53.182;6.284;2022-08-19T04:38:49;14.40;99.90
52159;DHT22;38145;53.182;6.284;2022-08-19T04:41:16;14.40;99.90
52159;DHT22;38145;53.182;6.284;2022-08-19T04:44:01;14.30;99.90
52159;DHT22;38145;53.182;6.284;2022-08-19T04:46:28;14.30;99.90
52159;DHT22;38145;53.182;6.284;2022-08-19T04:48:56;14.40;99.90
52159;DHT22;38145;53.182;6.284;2022-08-19T04:51:23;14.30;99.90
52159;DHT22;38145;53.182;6.284;2022-08-19T04:53:49;14.40;99.90
52159;DHT22;38145;53.182;6.284;2022-08-19T04:56:17;14.30;99.90
52159;DHT22;38145;53.182;6.284;2022-08-19T04:58:45;14.30;99.90
52159;DHT22;38145;53.182;6.284;2022-08-19T05:01:14;14.30;99.90
52159;DHT22;38145;53.182;6.284;2022-08-19T05:03:42;14.30;99.90
52159;DHT22;38145;53.182;6.284;2022-08-19T05:06:11;14.40;99.90
52159;DHT22;38145;53.182;6.284;2022-08-19T05:08:40;14.30;99.90
52159;DHT22;38145;53.182;6.284;2022-08-19T05:11:18;14.30;99.90
52159;DHT22;38145;53.182;6.284;2022-08-19T05:13:46;14.40;99.90
52159;DHT22;38145;53.182;6.284;2022-08-19T05:16:16;14.20;99.90
52159;DHT22;38145;53.182;6.284;2022-08-19T05:18:44;14.20;99.90
52159;DHT22;38145;53.182;6.284;2022-08-19T05:21:30;14.40;99.90
52159;DHT22;38145;53.182;6.284;2022-08-19T05:24:17;14.40;99.90
52159;DHT22;38145;53.182;6.284;2022-08-19T05:26:45;14.50;99.90
52159;DHT22;38145;53.182;6.284;2022-08-19T05:29:14;14.30;99.90
52159;DHT22;38145;53.182;6.284;2022-08-19T05:31:40;14.40;99.90
52159;DHT22;38145;53.182;6.284;2022-08-19T05:34:08;14.60;99.90
52159;DHT22;38145;53.182;6.284;2022-08-19T05:36:38;14.50;99.90
52159;DHT22;38145;53.182;6.284;2022-08-19T05:39:07;14.50;99.90
52159;DHT22;38145;53.182;6.284;2022-08-19T05:41:34;14.70;99.90
52159;DHT22;38145;53.182;6.284;2022-08-19T05:44:03;14.50;99.90
52159;DHT22;38145;53.182;6.284;2022-08-19T05:46:32;14.70;99.90
52159;DHT22;38145;53.182;6.284;2022-08-19T05:48:58;14.70;99.90
52159;DHT22;38145;53.182;6.284;2022-08-19T05:51:25;14.70;99.90
52159;DHT22;38145;53.182;6.284;2022-08-19T05:53:51;14.70;99.90
52159;DHT22;38145;53.182;6.284;2022-08-19T05:56:18;14.70;99.90
52159;DHT22;38145;53.182;6.284;2022-08-19T05:58:45;14.60;99.90
52159;DHT22;38145;53.182;6.284;2022-08-19T06:01:15;14.80;99.90
52159;DHT22;38145;53.182;6.284;2022-08-19T06:03:42;15.00;99.90
52159;DHT22;38145;53.182;6.284;2022-08-19T06:06:10;15.10;99.90
52159;DHT22;38145;53.182;6.284;2022-08-19T06:08:37;15.20;99.90
52159;DHT22;38145;53.182;6.284;2022-08-19T06:11:14;15.00;99.90
52159;DHT22;38145;53.182;6.284;2022-08-19T06:13:41;15.10;99.90
52159;DHT22;38145;53.182;6.284;2022-08-19T06:16:07;15.30;99.90
52159;DHT22;38145;53.182;6.284;2022-08-19T06:18:33;15.40;99.90
52159;DHT22;38145;53.182;6.284;2022-08-19T06:21:00;15.50;99.90
52159;DHT22;38145;53.182;6.284;2022-08-19T06:23:29;15.70;99.90
52159;DHT22;38145;53.182;6.284;2022-08-19T06:25:56;15.70;99.90
52159;DHT22;38145;53.182;6.284;2022-08-19T06:28:23;15.60;99.90
52159;DHT22;38145;53.182;6.284;2022-08-19T06:30:49;16.00;99.90
52159;DHT22;38145;53.182;6.284;2022-08-19T06:33:17;16.10;99.90
52159;DHT22;38145;53.182;6.284;2022-08-19T06:35:44;16.00;99.90
52159;DHT22;38145;53.182;6.284;2022-08-19T06:38:10;16.40;99.90
52159;DHT22;38145;53.182;6.284;2022-08-19T06:40:37;16.30;99.90
52159;DHT22;38145;53.182;6.284;2022-08-19T06:43:04;16.30;99.90
52159;DHT22;38145;53.182;6.284;2022-08-19T06:45:30;16.40;99.90
52159;DHT22;38145;53.182;6.284;2022-08-19T06:47:57;16.80;99.90
52159;DHT22;38145;53.182;6.284;2022-08-19T06:50:24;17.00;99.90
52159;DHT22;38145;53.182;6.284;2022-08-19T06:52:51;16.90;99.90
52159;DHT22;38145;53.182;6.284;2022-08-19T06:55:17;17.20;99.90
52159;DHT22;38145;53.182;6.284;2022-08-19T06:57:44;17.30;99.90
52159;DHT22;38145;53.182;6.284;2022-08-19T07:00:12;17.10;99.90
52159;DHT22;38145;53.182;6.284;2022-08-19T07:02:40;17.60;99.90
52159;DHT22;38145;53.182;6.284;2022-08-19T07:05:07;17.70;99.90
52159;DHT22;38145;53.182;6.284;2022-08-19T07:07:34;17.80;99.90
52159;DHT22;38145;53.182;6.284;2022-08-19T07:10:01;17.80;99.90
52159;DHT22;38145;53.182;6.284;2022-08-19T07:12:29;17.80;99.90
52159;DHT22;38145;53.182;6.284;2022-08-19T07:14:58;18.00;99.90
52159;DHT22;38145;53.182;6.284;2022-08-19T07:17:25;17.80;99.90
52159;DHT22;38145;53.182;6.284;2022-08-19T07:19:52;18.00;99.90
52159;DHT22;38145;53.182;6.284;2022-08-19T07:22:18;18.50;99.90
52159;DHT22;38145;53.182;6.284;2022-08-19T07:24:48;18.60;99.90
52159;DHT22;38145;53.182;6.284;2022-08-19T07:27:14;19.00;99.90
52159;DHT22;38145;53.182;6.284;2022-08-19T07:29:41;19.00;99.90
52159;DHT22;38145;53.182;6.284;2022-08-19T07:32:08;19.30;99.90
52159;DHT22;38145;53.182;6.284;2022-08-19T07:34:35;19.80;99.90
52159;DHT22;38145;53.182;6.284;2022-08-19T07:37:05;20.10;99.90
52159;DHT22;38145;53.182;6.284;2022-08-19T07:39:35;20.40;99.90
52159;DHT22;38145;53.182;6.284;2022-08-19T07:42:06;20.50;99.90
52159;DHT22;38145;53.182;6.284;2022-08-19T07:44:34;20.80;99.90
52159;DHT22;38145;53.182;6.284;2022-08-19T07:47:02;20.90;99.90
52159;DHT22;38145;53.182;6.284;2022-08-19T07:49:28;20.70;99.90
52159;DHT22;38145;53.182;6.284;2022-08-19T07:51:58;20.80;99.90
52159;DHT22;38145;53.182;6.284;2022-08-19T07:54:30;20.80;99.90
52159;DHT22;38145;53.182;6.284;2022-08-19T07:56:57;20.80;99.90
52159;DHT22;38145;53.182;6.284;2022-08-19T07:59:24;20.90;99.90
52159;DHT22;38145;53.182;6.284;2022-08-19T08:01:50;21.00;99.90
52159;DHT22;38145;53.182;6.284;2022-08-19T08:04:18;21.20;99.90
52159;DHT22;38145;53.182;6.284;2022-08-19T08:07:05;21.40;99.90
52159;DHT22;38145;53.182;6.284;2022-08-19T08:09:50;21.50;99.90
52159;DHT22;38145;53.182;6.284;2022-08-19T08:12:24;21.70;99.90
52159;DHT22;38145;53.182;6.284;2022-08-19T08:14:55;21.80;99.90
52159;DHT22;38145;53.182;6.284;2022-08-19T08:17:24;22.00;99.90
52159;DHT22;38145;53.182;6.284;2022-08-19T08:19:52;22.30;99.90
52159;DHT22;38145;53.182;6.284;2022-08-19T08:22:21;22.40;99.90
52159;DHT22;38145;53.182;6.284;2022-08-19T08:25:10;22.50;99.90
52159;DHT22;38145;53.182;6.284;2022-08-19T08:27:38;22.60;99.90
52159;DHT22;38145;53.182;6.284;2022-08-19T08:30:09;22.70;99.90
52159;DHT22;38145;53.182;6.284;2022-08-19T08:32:38;22.90;99.90
52159;DHT22;38145;53.182;6.284;2022-08-19T08:35:07;23.10;99.90
52159;DHT22;38145;53.182;6.284;2022-08-19T08:37:34;23.40;99.90
52159;DHT22;38145;53.182;6.284;2022-08-19T08:40:04;23.60;99.90
52159;DHT22;38145;53.182;6.284;2022-08-19T08:42:36;23.80;99.90
52159;DHT22;38145;53.182;6.284;2022-08-19T08:45:12;24.10;99.90
52159;DHT22;38145;53.182;6.284;2022-08-19T08:47:43;24.20;99.90
52159;DHT22;38145;53.182;6.284;2022-08-19T08:50:24;24.40;99.90
52159;DHT22;38145;53.182;6.284;2022-08-19T08:52:54;24.60;99.90
52159;DHT22;38145;53.182;6.284;2022-08-19T08:55:26;24.80;99.90
52159;DHT22;38145;53.182;6.284;2022-08-19T09:00:30;25.10;99.90
52159;DHT22;38145;53.182;6.284;2022-08-19T09:02:58;25.10;99.90
52159;DHT22;38145;53.182;6.284;2022-08-19T09:05:40;25.30;99.90
52159;DHT22;38145;53.182;6.284;2022-08-19T09:08:18;25.50;99.90
52159;DHT22;38145;53.182;6.284;2022-08-19T09:10:52;25.70;99.90
52159;DHT22;38145;53.182;6.284;2022-08-19T09:13:35;25.70;99.90
52159;DHT22;38145;53.182;6.284;2022-08-19T09:16:07;25.70;99.90
52159;DHT22;38145;53.182;6.284;2022-08-19T09:21:07;25.90;99.90
52159;DHT22;38145;53.182;6.284;2022-08-19T09:23:35;26.10;99.90
52159;DHT22;38145;53.182;6.284;2022-08-19T09:26:07;26.20;99.90
52159;DHT22;38145;53.182;6.284;2022-08-19T09:28:34;26.20;99.90
52159;DHT22;38145;53.182;6.284;2022-08-19T09:31:01;26.20;99.90
52159;DHT22;38145;53.182;6.284;2022-08-19T09:33:27;26.20;99.90
52159;DHT22;38145;53.182;6.284;2022-08-19T09:36:11;26.20;99.90
52159;DHT22;38145;53.182;6.284;2022-08-19T09:38:40;26.40;99.90
52159;DHT22;38145;53.182;6.284;2022-08-19T09:41:09;26.50;99.90
52159;DHT22;38145;53.182;6.284;2022-08-19T09:43:40;26.50;99.90
52159;DHT22;38145;53.182;6.284;2022-08-19T09:46:07;26.50;99.90
52159;DHT22;38145;53.182;6.284;2022-08-19T09:48:36;26.50;99.90
52159;DHT22;38145;53.182;6.284;2022-08-19T09:51:08;26.60;99.90
52159;DHT22;38145;53.182;6.284;2022-08-19T09:53:35;26.80;99.90
52159;DHT22;38145;53.182;6.284;2022-08-19T09:56:03;26.80;99.90
52159;DHT22;38145;53.182;6.284;2022-08-19T09:58:31;26.80;99.90
52159;DHT22;38145;53.182;6.284;2022-08-19T10:00:58;26.90;99.90
52159;DHT22;38145;53.182;6.284;2022-08-19T10:03:25;27.00;99.90
52159;DHT22;38145;53.182;6.284;2022-08-19T10:05:53;26.90;99.90
52159;DHT22;38145;53.182;6.284;2022-08-19T10:08:33;27.00;99.90
52159;DHT22;38145;53.182;6.284;2022-08-19T10:11:01;27.10;99.90
52159;DHT22;38145;53.182;6.284;2022-08-19T10:13:29;27.10;99.90
52159;DHT22;38145;53.182;6.284;2022-08-19T10:16:03;27.00;99.90
52159;DHT22;38145;53.182;6.284;2022-08-19T10:18:30;27.10;99.90
52159;DHT22;38145;53.182;6.284;2022-08-19T10:21:14;27.20;99.90
52159;DHT22;38145;53.182;6.284;2022-08-19T10:23:43;27.30;99.90
52159;DHT22;38145;53.182;6.284;2022-08-19T10:26:14;27.40;99.90
52159;DHT22;38145;53.182;6.284;2022-08-19T10:28:41;27.30;99.90
52159;DHT22;38145;53.182;6.284;2022-08-19T10:31:12;27.10;99.90
52159;DHT22;38145;53.182;6.284;2022-08-19T10:33:39;27.00;99.90
52159;DHT22;38145;53.182;6.284;2022-08-19T10:36:12;26.50;99.90
52159;DHT22;38145;53.182;6.284;2022-08-19T10:38:41;26.20;99.90
52159;DHT22;38145;53.182;6.284;2022-08-19T10:41:12;26.20;99.90
52159;DHT22;38145;53.182;6.284;2022-08-19T10:43:40;26.40;99.90
52159;DHT22;38145;53.182;6.284;2022-08-19T10:46:09;26.50;99.90
52159;DHT22;38145;53.182;6.284;2022-08-19T10:48:35;26.50;99.90
52159;DHT22;38145;53.182;6.284;2022-08-19T10:51:02;26.30;99.90
52159;DHT22;38145;53.182;6.284;2022-08-19T10:53:48;26.00;99.90
52159;DHT22;38145;53.182;6.284;2022-08-19T10:56:15;25.80;99.90
52159;DHT22;38145;53.182;6.284;2022-08-19T10:59:00;25.70;99.90
52159;DHT22;38145;53.182;6.284;2022-08-19T11:01:29;25.50;99.90
52159;DHT22;38145;53.182;6.284;2022-08-19T11:03:59;25.40;99.90
52159;DHT22;38145;53.182;6.284;2022-08-19T11:06:26;25.40;99.90
52159;DHT22;38145;53.182;6.284;2022-08-19T11:08:53;25.40;99.90
52159;DHT22;38145;53.182;6.284;2022-08-19T11:11:20;25.50;99.90
52159;DHT22;38145;53.182;6.284;2022-08-19T11:13:47;25.60;99.90
52159;DHT22;38145;53.182;6.284;2022-08-19T11:16:19;25.70;99.90
52159;DHT22;38145;53.182;6.284;2022-08-19T11:18:49;25.70;99.90
52159;DHT22;38145;53.182;6.284;2022-08-19T11:21:20;25.80;99.90
52159;DHT22;38145;53.182;6.284;2022-08-19T11:23:49;25.80;99.90
52159;DHT22;38145;53.182;6.284;2022-08-19T11:26:16;25.70;99.90
52159;DHT22;38145;53.182;6.284;2022-08-19T11:28:43;25.60;99.90
52159;DHT22;38145;53.182;6.284;2022-08-19T11:31:11;25.50;99.90
52159;DHT22;38145;53.182;6.284;2022-08-19T11:33:37;25.40;99.90
52159;DHT22;38145;53.182;6.284;2022-08-19T11:36:04;25.30;99.90
52159;DHT22;38145;53.182;6.284;2022-08-19T11:38:30;25.40;99.90
52159;DHT22;38145;53.182;6.284;2022-08-19T11:41:00;25.40;99.90
52159;DHT22;38145;53.182;6.284;2022-08-19T11:43:27;25.60;99.90
52159;DHT22;38145;53.182;6.284;2022-08-19T11:45:55;25.50;99.90
52159;DHT22;38145;53.182;6.284;2022-08-19T11:48:22;25.40;99.90
52159;DHT22;38145;53.182;6.284;2022-08-19T11:50:50;25.50;99.90
52159;DHT22;38145;53.182;6.284;2022-08-19T11:53:18;25.50;99.90
52159;DHT22;38145;53.182;6.284;2022-08-19T11:55:47;25.60;99.90
52159;DHT22;38145;53.182;6.284;2022-08-19T11:58:16;25.60;99.90
52159;DHT22;38145;53.182;6.284;2022-08-19T12:00:44;25.70;99.90
52159;DHT22;38145;53.182;6.284;2022-08-19T12:03:12;25.80;99.90
52159;DHT22;38145;53.182;6.284;2022-08-19T12:05:40;25.70;99.90
52159;DHT22;38145;53.182;6.284;2022-08-19T12:08:06;25.60;99.90
52159;DHT22;38145;53.182;6.284;2022-08-19T12:10:34;25.60;99.90
52159;DHT22;38145;53.182;6.284;2022-08-19T12:13:00;25.50;99.90
52159;DHT22;38145;53.182;6.284;2022-08-19T12:15:27;25.40;99.90
52159;DHT22;38145;53.182;6.284;2022-08-19T12:17:56;25.30;99.90
52159;DHT22;38145;53.182;6.284;2022-08-19T12:20:23;25.30;99.90
52159;DHT22;38145;53.182;6.284;2022-08-19T12:22:50;25.20;99.90
52159;DHT22;38145;53.182;6.284;2022-08-19T12:25:17;25.30;99.90
52159;DHT22;38145;53.182;6.284;2022-08-19T12:27:43;25.30;99.90
52159;DHT22;38145;53.182;6.284;2022-08-19T12:30:12;25.20;99.90
52159;DHT22;38145;53.182;6.284;2022-08-19T12:32:39;25.20;99.90
52159;DHT22;38145;53.182;6.284;2022-08-19T12:35:07;25.20;99.90
52159;DHT22;38145;53.182;6.284;2022-08-19T12:37:35;25.20;99.90
52159;DHT22;38145;53.182;6.284;2022-08-19T12:40:01;25.30;99.90
52159;DHT22;38145;53.182;6.284;2022-08-19T12:42:28;25.40;99.90
52159;DHT22;38145;53.182;6.284;2022-08-19T12:44:56;25.40;99.90
52159;DHT22;38145;53.182;6.284;2022-08-19T12:47:22;25.30;99.90
52159;DHT22;38145;53.182;6.284;2022-08-19T12:49:49;25.20;99.90
52159;DHT22;38145;53.182;6.284;2022-08-19T12:52:15;25.00;99.90
52159;DHT22;38145;53.182;6.284;2022-08-19T12:54:42;24.80;99.90
52159;DHT22;38145;53.182;6.284;2022-08-19T12:57:10;24.50;99.90
52159;DHT22;38145;53.182;6.284;2022-08-19T12:59:37;24.40;99.90
52159;DHT22;38145;53.182;6.284;2022-08-19T13:02:04;24.20;99.90
52159;DHT22;38145;53.182;6.284;2022-08-19T13:04:32;23.90;99.90
52159;DHT22;38145;53.182;6.284;2022-08-19T13:07:02;23.80;99.90
52159;DHT22;38145;53.182;6.284;2022-08-19T13:09:28;23.60;99.90
52159;DHT22;38145;53.182;6.284;2022-08-19T13:11:54;23.50;99.90
52159;DHT22;38145;53.182;6.284;2022-08-19T13:14:22;23.40;99.90
52159;DHT22;38145;53.182;6.284;2022-08-19T13:16:48;23.30;99.90
52159;DHT22;38145;53.182;6.284;2022-08-19T13:19:15;23.20;99.90
52159;DHT22;38145;53.182;6.284;2022-08-19T13:21:41;23.30;99.90
52159;DHT22;38145;53.182;6.284;2022-08-19T13:24:07;23.30;99.90
52159;DHT22;38145;53.182;6.284;2022-08-19T13:26:34;23.30;99.90
52159;DHT22;38145;53.182;6.284;2022-08-19T13:29:00;23.40;99.90
52159;DHT22;38145;53.182;6.284;2022-08-19T13:32:00;23.40;99.90
52159;DHT22;38145;53.182;6.284;2022-08-19T13:34:45;23.50;99.90
52159;DHT22;38145;53.182;6.284;2022-08-19T13:37:12;23.50;99.90
52159;DHT22;38145;53.182;6.284;2022-08-19T13:39:38;23.60;99.90
52159;DHT22;38145;53.182;6.284;2022-08-19T13:42:05;23.70;99.90
52159;DHT22;38145;53.182;6.284;2022-08-19T13:44:33;23.90;99.90
52159;DHT22;38145;53.182;6.284;2022-08-19T13:47:02;23.90;99.90
52159;DHT22;38145;53.182;6.284;2022-08-19T13:49:34;24.10;99.90
52159;DHT22;38145;53.182;6.284;2022-08-19T13:52:03;24.20;99.90
52159;DHT22;38145;53.182;6.284;2022-08-19T13:54:30;24.20;99.90
52159;DHT22;38145;53.182;6.284;2022-08-19T13:56:57;24.30;99.90
52159;DHT22;38145;53.182;6.284;2022-08-19T13:59:23;24.30;99.90
52159;DHT22;38145;53.182;6.284;2022-08-19T14:01:49;24.20;99.90
52159;DHT22;38145;53.182;6.284;2022-08-19T14:04:15;24.20;99.90
52159;DHT22;38145;53.182;6.284;2022-08-19T14:06:42;24.20;99.90
52159;DHT22;38145;53.182;6.284;2022-08-19T14:09:08;24.20;99.90
52159;DHT22;38145;53.182;6.284;2022-08-19T14:11:34;24.20;99.90
52159;DHT22;38145;53.182;6.284;2022-08-19T14:14:00;24.20;99.90
52159;DHT22;38145;53.182;6.284;2022-08-19T14:16:26;24.20;99.90
52159;DHT22;38145;53.182;6.284;2022-08-19T14:18:53;24.20;99.90
52159;DHT22;38145;53.182;6.284;2022-08-19T14:21:21;24.20;99.90
52159;DHT22;38145;53.182;6.284;2022-08-19T14:23:49;24.20;99.90
52159;DHT22;38145;53.182;6.284;2022-08-19T14:26:17;24.10;99.90
52159;DHT22;38145;53.182;6.284;2022-08-19T14:28:45;24.10;99.90
52159;DHT22;38145;53.182;6.284;2022-08-19T14:31:12;24.10;99.90
52159;DHT22;38145;53.182;6.284;2022-08-19T14:33:42;24.10;99.90
52159;DHT22;38145;53.182;6.284;2022-08-19T14:36:08;24.20;99.90
52159;DHT22;38145;53.182;6.284;2022-08-19T14:38:36;24.20;99.90
52159;DHT22;38145;53.182;6.284;2022-08-19T14:41:10;24.20;99.90
52159;DHT22;38145;53.182;6.284;2022-08-19T14:43:38;24.20;99.90
52159;DHT22;38145;53.182;6.284;2022-08-19T14:46:05;24.40;99.90
52159;DHT22;38145;53.182;6.284;2022-08-19T14:48:31;24.40;99.90
52159;DHT22;38145;53.182;6.284;2022-08-19T14:50:58;24.60;99.90
52159;DHT22;38145;53.182;6.284;2022-08-19T14:53:24;24.60;99.90
52159;DHT22;38145;53.182;6.284;2022-08-19T14:55:51;24.60;99.90
52159;DHT22;38145;53.182;6.284;2022-08-19T14:58:17;24.60;99.90
52159;DHT22;38145;53.182;6.284;2022-08-19T15:00:43;24.60;99.90
52159;DHT22;38145;53.182;6.284;2022-08-19T15:03:10;24.40;99.90
52159;DHT22;38145;53.182;6.284;2022-08-19T15:05:37;24.30;99.90
52159;DHT22;38145;53.182;6.284;2022-08-19T15:08:04;24.30;99.90
52159;DHT22;38145;53.182;6.284;2022-08-19T15:10:30;24.30;99.90
52159;DHT22;38145;53.182;6.284;2022-08-19T15:12:57;24.30;99.90
52159;DHT22;38145;53.182;6.284;2022-08-19T15:15:24;24.40;99.90
52159;DHT22;38145;53.182;6.284;2022-08-19T15:17:50;24.30;99.90
52159;DHT22;38145;53.182;6.284;2022-08-19T15:20:19;24.30;99.90
52159;DHT22;38145;53.182;6.284;2022-08-19T15:22:47;24.40;99.90
52159;DHT22;38145;53.182;6.284;2022-08-19T15:25:16;24.40;99.90
52159;DHT22;38145;53.182;6.284;2022-08-19T15:27:44;24.50;99.90
52159;DHT22;38145;53.182;6.284;2022-08-19T15:30:11;24.60;99.90
52159;DHT22;38145;53.182;6.284;2022-08-19T15:32:38;24.60;99.90
52159;DHT22;38145;53.182;6.284;2022-08-19T15:35:06;24.60;99.90
52159;DHT22;38145;53.182;6.284;2022-08-19T15:37:33;24.60;99.90
52159;DHT22;38145;53.182;6.284;2022-08-19T15:39:59;24.50;99.90
52159;DHT22;38145;53.182;6.284;2022-08-19T15:42:26;24.50;99.90